createdAt,value
2019-02-27T00:01:17.055Z,3.20
2019-02-27T00:02:22.685Z,3.20
2019-02-27T00:03:28.879Z,3.20
2019-02-27T00:04:34.828Z,3.20
2019-02-27T00:05:38.871Z,3.20
2019-02-27T00:06:41.738Z,3.30
2019-02-27T00:07:45.586Z,3.30
2019-02-27T00:08:49.232Z,3.30
2019-02-27T00:09:52.890Z,3.40
2019-02-27T00:10:56.520Z,3.40
2019-02-27T00:12:00.131Z,3.40
2019-02-27T00:13:03.731Z,3.40
2019-02-27T00:14:07.328Z,3.40
2019-02-27T00:15:11.027Z,3.40
2019-02-27T00:16:14.621Z,3.40
2019-02-27T00:17:18.841Z,3.40
2019-02-27T00:18:23.968Z,3.40
2019-02-27T00:19:30.957Z,3.50
2019-02-27T00:20:36.676Z,3.40
2019-02-27T00:21:38.215Z,3.40
2019-02-27T00:22:41.798Z,3.40
2019-02-27T00:23:45.397Z,3.40
2019-02-27T00:24:49.075Z,3.40
2019-02-27T00:25:52.702Z,3.30
2019-02-27T00:26:56.361Z,3.30
2019-02-27T00:27:59.973Z,3.20
2019-02-27T00:29:03.764Z,3.20
2019-02-27T00:30:10.211Z,3.30
2019-02-27T00:31:13.870Z,3.40
2019-02-27T00:32:18.666Z,3.30
2019-02-27T00:33:24.906Z,3.30
2019-02-27T00:34:28.069Z,3.30
2019-02-27T00:35:31.680Z,3.30
2019-02-27T00:36:35.266Z,3.30
2019-02-27T00:37:38.860Z,3.30
2019-02-27T00:38:42.493Z,3.40
2019-02-27T00:39:46.090Z,3.40
2019-02-27T00:40:49.703Z,3.40
2019-02-27T00:41:53.307Z,3.40
2019-02-27T00:42:56.903Z,3.30
2019-02-27T00:44:01.358Z,3.20
2019-02-27T00:45:08.339Z,3.30
2019-02-27T00:46:13.383Z,3.20
2019-02-27T00:47:20.140Z,3.20
2019-02-27T00:48:25.953Z,3.20
2019-02-27T00:49:29.824Z,3.20
2019-02-27T00:50:33.051Z,3.20
2019-02-27T00:51:36.710Z,3.10
2019-02-27T00:52:40.296Z,3.00
2019-02-27T00:53:43.891Z,3.00
2019-02-27T00:54:47.491Z,2.80
2019-02-27T00:55:51.085Z,2.80
2019-02-27T00:56:54.788Z,2.90
2019-02-27T00:57:58.400Z,2.90
2019-02-27T00:59:01.986Z,2.90
2019-02-27T01:00:14.787Z,2.90
2019-02-27T01:01:18.377Z,3.00
2019-02-27T01:02:21.977Z,3.00
2019-02-27T01:03:26.249Z,3.00
2019-02-27T01:04:30.389Z,3.10
2019-02-27T01:05:33.977Z,3.10
2019-02-27T01:06:37.555Z,3.10
2019-02-27T01:07:41.237Z,3.20
2019-02-27T01:08:44.904Z,3.20
2019-02-27T01:09:48.841Z,3.20
2019-02-27T01:10:52.443Z,3.10
2019-02-27T01:11:56.048Z,3.10
2019-02-27T01:12:59.712Z,3.10
2019-02-27T01:14:04.152Z,3.00
2019-02-27T01:15:12.654Z,3.00
2019-02-27T01:16:17.254Z,3.00
2019-02-27T01:17:23.891Z,3.00
2019-02-27T01:18:30.418Z,3.00
2019-02-27T01:19:32.204Z,2.90
2019-02-27T01:20:35.879Z,2.90
2019-02-27T01:21:39.462Z,2.90
2019-02-27T01:22:43.171Z,2.90
2019-02-27T01:23:46.756Z,2.90
2019-02-27T01:24:50.691Z,2.80
2019-02-27T01:25:56.923Z,2.80
2019-02-27T01:27:04.294Z,2.80
2019-02-27T01:28:04.872Z,2.80
2019-02-27T01:29:08.471Z,2.70
2019-02-27T01:30:16.487Z,2.70
2019-02-27T01:31:21.968Z,2.70
2019-02-27T01:32:25.320Z,2.70
2019-02-27T01:33:28.901Z,2.60
2019-02-27T01:34:32.631Z,2.50
2019-02-27T01:35:36.367Z,2.50
2019-02-27T01:36:39.967Z,2.50
2019-02-27T01:37:43.577Z,2.40
2019-02-27T01:38:47.182Z,2.40
2019-02-27T01:39:50.770Z,2.40
2019-02-27T01:40:54.407Z,2.40
2019-02-27T01:41:58.579Z,2.50
2019-02-27T01:43:05.547Z,2.50
2019-02-27T01:44:07.434Z,2.40
2019-02-27T01:45:15.487Z,2.50
2019-02-27T01:46:20.720Z,2.40
2019-02-27T01:47:24.343Z,2.30
2019-02-27T01:48:27.951Z,2.30
2019-02-27T01:49:31.562Z,2.30
2019-02-27T01:50:36.842Z,2.30
2019-02-27T01:51:40.443Z,2.30
2019-02-27T01:52:44.023Z,2.30
2019-02-27T01:53:47.611Z,2.20
2019-02-27T01:54:51.226Z,2.20
2019-02-27T01:55:56.367Z,2.20
2019-02-27T01:57:02.769Z,2.20
2019-02-27T01:58:09.146Z,2.20
2019-02-27T01:59:10.727Z,2.20
2019-02-27T02:00:15.023Z,2.10
2019-02-27T02:01:18.658Z,2.00
2019-02-27T02:02:22.262Z,2.10
2019-02-27T02:03:25.867Z,2.10
2019-02-27T02:04:29.489Z,2.10
2019-02-27T02:05:33.265Z,2.10
2019-02-27T02:06:36.892Z,2.20
2019-02-27T02:07:40.853Z,2.20
2019-02-27T02:08:48.049Z,2.20
2019-02-27T02:09:52.072Z,2.20
2019-02-27T02:10:58.948Z,2.20
2019-02-27T02:12:08.640Z,2.20
2019-02-27T02:13:15.858Z,2.20
2019-02-27T02:14:25.166Z,2.20
2019-02-27T02:15:40.570Z,2.30
2019-02-27T02:16:53.003Z,2.20
2019-02-27T02:18:33.062Z,2.20
2019-02-27T02:19:45.566Z,2.20
2019-02-27T02:21:06.626Z,2.20
2019-02-27T02:22:19.084Z,2.20
2019-02-27T02:23:31.606Z,2.20
2019-02-27T02:24:43.826Z,2.20
2019-02-27T02:25:53.421Z,2.20
2019-02-27T02:27:14.400Z,2.20
2019-02-27T02:28:23.882Z,2.10
2019-02-27T02:29:47.126Z,2.10
2019-02-27T02:31:11.435Z,2.10
2019-02-27T02:32:20.937Z,2.10
2019-02-27T02:33:39.151Z,2.10
2019-02-27T02:34:57.797Z,2.00
2019-02-27T02:36:04.468Z,2.00
2019-02-27T02:37:38.469Z,2.00
2019-02-27T02:38:57.142Z,2.00
2019-02-27T02:40:23.209Z,2.00
2019-02-27T02:41:54.052Z,2.00
2019-02-27T02:43:27.997Z,2.00
2019-02-27T02:45:07.804Z,1.90
2019-02-27T02:46:32.324Z,1.90
2019-02-27T02:47:44.120Z,1.80
2019-02-27T02:48:53.366Z,1.80
2019-02-27T02:50:17.737Z,1.90
2019-02-27T02:51:57.987Z,1.90
2019-02-27T02:53:10.402Z,1.90
2019-02-27T02:54:37.560Z,1.80
2019-02-27T02:55:55.028Z,1.80
2019-02-27T02:57:36.274Z,1.70
2019-02-27T02:59:16.354Z,1.80
2019-02-27T03:00:39.223Z,1.80
2019-02-27T03:01:49.165Z,1.70
2019-02-27T03:03:02.545Z,1.70
2019-02-27T03:04:17.988Z,1.80
2019-02-27T03:05:30.567Z,1.80
2019-02-27T03:06:39.785Z,1.80
2019-02-27T03:07:58.219Z,1.90
2019-02-27T03:09:20.101Z,1.90
2019-02-27T03:10:42.578Z,1.90
2019-02-27T03:12:06.313Z,1.90
2019-02-27T03:13:29.856Z,1.90
2019-02-27T03:14:36.544Z,1.90
2019-02-27T03:16:04.614Z,1.90
2019-02-27T03:17:18.050Z,1.80
2019-02-27T03:18:45.528Z,1.80
2019-02-27T03:20:17.876Z,1.80
2019-02-27T03:22:56.223Z,1.60
2019-02-27T03:24:18.043Z,1.60
2019-02-27T03:25:42.766Z,1.50
2019-02-27T03:26:53.013Z,1.50
2019-02-27T03:28:12.103Z,1.50
2019-02-27T03:29:37.962Z,1.50
2019-02-27T03:31:18.377Z,1.60
2019-02-27T03:32:28.403Z,1.70
2019-02-27T03:33:52.956Z,1.80
2019-02-27T03:35:17.515Z,1.80
2019-02-27T03:36:26.779Z,1.80
2019-02-27T03:37:49.349Z,1.80
2019-02-27T03:39:08.127Z,1.70
2019-02-27T03:40:29.406Z,1.60
2019-02-27T03:41:58.490Z,1.60
2019-02-27T03:43:11.506Z,1.70
2019-02-27T03:44:48.769Z,1.60
2019-02-27T03:46:03.016Z,1.60
2019-02-27T03:47:20.878Z,1.60
2019-02-27T03:48:42.501Z,1.70
2019-02-27T03:49:51.626Z,1.60
2019-02-27T03:51:07.410Z,1.60
2019-02-27T03:52:22.496Z,1.60
2019-02-27T03:53:38.139Z,1.70
2019-02-27T03:55:07.220Z,1.60
2019-02-27T03:56:19.640Z,1.60
2019-02-27T03:57:32.430Z,1.60
2019-02-27T03:59:05.536Z,1.50
2019-02-27T04:00:22.007Z,1.60
2019-02-27T04:01:34.714Z,1.50
2019-02-27T04:02:47.469Z,1.60
2019-02-27T04:04:30.590Z,1.60
2019-02-27T04:05:50.958Z,1.50
2019-02-27T04:07:23.331Z,1.50
2019-02-27T04:08:44.882Z,1.40
2019-02-27T04:09:47.028Z,1.40
2019-02-27T04:10:50.659Z,1.50
2019-02-27T04:11:54.253Z,1.50
2019-02-27T04:12:57.841Z,1.50
2019-02-27T04:14:04.743Z,1.50
2019-02-27T04:15:08.885Z,1.50
2019-02-27T04:16:12.465Z,1.50
2019-02-27T04:17:16.135Z,1.30
2019-02-27T04:18:18.644Z,1.30
2019-02-27T04:19:22.415Z,1.30
2019-02-27T04:20:26.040Z,1.30
2019-02-27T04:21:29.801Z,1.30
2019-02-27T04:22:36.619Z,1.30
2019-02-27T04:23:38.694Z,1.30
2019-02-27T04:24:42.347Z,1.30
2019-02-27T04:25:45.934Z,1.30
2019-02-27T04:26:49.551Z,1.30
2019-02-27T04:27:55.671Z,1.30
2019-02-27T04:29:04.013Z,1.30
2019-02-27T04:30:05.168Z,1.30
2019-02-27T04:31:08.750Z,1.30
2019-02-27T04:32:13.219Z,1.30
2019-02-27T04:33:22.957Z,1.20
2019-02-27T04:34:22.132Z,1.10
2019-02-27T04:35:25.749Z,1.10
2019-02-27T04:36:29.444Z,1.10
2019-02-27T04:37:33.101Z,1.10
2019-02-27T04:38:36.683Z,1.00
2019-02-27T04:39:40.280Z,1.00
2019-02-27T04:40:44.127Z,0.90
2019-02-27T04:41:49.566Z,1.00
2019-02-27T04:42:53.683Z,1.00
2019-02-27T04:43:57.302Z,1.00
2019-02-27T04:45:00.894Z,1.00
2019-02-27T04:46:04.557Z,1.10
2019-02-27T04:47:08.182Z,1.10
2019-02-27T04:48:11.802Z,1.10
2019-02-27T04:49:15.440Z,1.10
2019-02-27T04:50:19.031Z,1.10
2019-02-27T04:51:22.654Z,1.00
2019-02-27T04:52:26.307Z,1.00
2019-02-27T04:53:31.919Z,1.00
2019-02-27T04:54:35.183Z,1.10
2019-02-27T04:55:38.762Z,1.10
2019-02-27T04:56:42.422Z,1.00
2019-02-27T04:57:46.043Z,1.00
2019-02-27T04:58:49.628Z,1.00
2019-02-27T04:59:53.253Z,1.10
2019-02-27T05:00:58.935Z,1.10
2019-02-27T05:02:02.068Z,1.10
2019-02-27T05:03:05.709Z,1.00
2019-02-27T05:04:09.356Z,1.00
2019-02-27T05:05:13.012Z,1.00
2019-02-27T05:06:16.592Z,0.90
2019-02-27T05:07:20.845Z,0.90
2019-02-27T05:08:26.937Z,0.90
2019-02-27T05:09:31.355Z,0.90
2019-02-27T05:10:35.069Z,0.80
2019-02-27T05:11:38.727Z,0.90
2019-02-27T05:12:42.336Z,0.90
2019-02-27T05:13:45.927Z,0.80
2019-02-27T05:14:49.522Z,0.90
2019-02-27T05:15:53.182Z,0.80
2019-02-27T05:16:56.758Z,0.80
2019-02-27T05:18:00.512Z,0.80
2019-02-27T05:19:04.741Z,0.70
2019-02-27T05:20:11.579Z,0.70
2019-02-27T05:21:18.894Z,0.70
2019-02-27T05:22:19.662Z,0.60
2019-02-27T05:23:23.311Z,0.70
2019-02-27T05:24:26.916Z,0.90
2019-02-27T05:25:30.520Z,1.00
2019-02-27T05:26:34.117Z,1.10
2019-02-27T05:27:37.721Z,1.20
2019-02-27T05:28:41.379Z,1.20
2019-02-27T05:29:44.975Z,1.30
2019-02-27T05:30:48.661Z,1.40
2019-02-27T05:31:53.245Z,1.50
2019-02-27T05:33:01.642Z,1.60
2019-02-27T05:34:02.996Z,1.50
2019-02-27T05:35:06.679Z,1.50
2019-02-27T05:36:10.284Z,1.50
2019-02-27T05:37:14.007Z,1.50
2019-02-27T05:38:17.635Z,1.40
2019-02-27T05:39:21.239Z,1.40
2019-02-27T05:40:26.009Z,1.30
2019-02-27T05:41:32.936Z,1.20
2019-02-27T05:42:38.803Z,1.20
2019-02-27T05:43:40.671Z,1.10
2019-02-27T05:44:44.258Z,1.10
2019-02-27T05:45:47.846Z,1.00
2019-02-27T05:46:51.505Z,1.00
2019-02-27T05:47:55.148Z,1.00
2019-02-27T05:48:58.746Z,1.00
2019-02-27T05:50:02.343Z,1.00
2019-02-27T05:51:07.545Z,1.00
2019-02-27T05:52:11.815Z,1.10
2019-02-27T05:53:16.622Z,1.10
2019-02-27T05:54:20.214Z,1.20
2019-02-27T05:55:23.801Z,1.20
2019-02-27T05:56:27.464Z,1.20
2019-02-27T05:57:31.461Z,1.20
2019-02-27T05:58:35.118Z,1.30
2019-02-27T05:59:38.701Z,1.30
2019-02-27T06:00:42.295Z,1.30
2019-02-27T06:01:45.872Z,1.20
2019-02-27T06:02:49.576Z,1.10
2019-02-27T06:03:53.245Z,1.10
2019-02-27T06:04:59.142Z,1.00
2019-02-27T06:06:02.130Z,0.90
2019-02-27T06:07:05.733Z,0.80
2019-02-27T06:08:09.370Z,0.90
2019-02-27T06:09:13.074Z,1.00
2019-02-27T06:10:20.174Z,0.90
2019-02-27T06:11:22.858Z,1.00
2019-02-27T06:12:26.488Z,1.00
2019-02-27T06:13:30.234Z,1.00
2019-02-27T06:14:33.874Z,0.90
2019-02-27T06:15:37.468Z,0.90
2019-02-27T06:16:41.075Z,0.80
2019-02-27T06:17:48.806Z,0.80
2019-02-27T06:18:50.178Z,0.80
2019-02-27T06:19:53.990Z,0.80
2019-02-27T06:20:57.574Z,0.80
2019-02-27T06:22:01.164Z,0.80
2019-02-27T06:23:05.065Z,0.70
2019-02-27T06:24:11.596Z,0.70
2019-02-27T06:25:21.901Z,0.70
2019-02-27T06:26:23.513Z,0.70
2019-02-27T06:27:27.099Z,0.60
2019-02-27T06:28:30.688Z,0.70
2019-02-27T06:29:34.288Z,0.70
2019-02-27T06:30:37.889Z,0.70
2019-02-27T06:31:41.536Z,0.60
2019-02-27T06:32:45.122Z,0.60
2019-02-27T06:33:48.858Z,0.70
2019-02-27T06:34:52.464Z,0.70
2019-02-27T06:35:56.069Z,0.80
2019-02-27T06:36:59.713Z,0.80
2019-02-27T06:38:03.271Z,0.80
2019-02-27T06:39:08.690Z,0.80
2019-02-27T06:40:18.231Z,0.80
2019-02-27T06:41:22.150Z,0.80
2019-02-27T06:42:25.790Z,0.90
2019-02-27T06:43:29.431Z,0.80
2019-02-27T06:44:33.066Z,0.80
2019-02-27T06:45:36.652Z,0.80
2019-02-27T06:46:40.244Z,0.90
2019-02-27T06:47:43.849Z,0.90
2019-02-27T06:48:47.453Z,0.80
2019-02-27T06:49:51.866Z,0.80
2019-02-27T06:50:58.228Z,0.80
2019-02-27T06:52:01.531Z,0.80
2019-02-27T06:53:05.189Z,0.80
2019-02-27T06:54:08.809Z,0.80
2019-02-27T06:55:14.211Z,0.90
2019-02-27T06:56:17.786Z,0.90
2019-02-27T06:57:21.396Z,0.80
2019-02-27T06:58:24.996Z,0.80
2019-02-27T06:59:28.646Z,0.80
2019-02-27T07:00:35.754Z,0.80
2019-02-27T07:01:37.534Z,0.80
2019-02-27T07:02:41.289Z,0.90
2019-02-27T07:03:44.879Z,0.90
2019-02-27T07:04:48.474Z,0.80
2019-02-27T07:05:52.069Z,0.80
2019-02-27T07:06:56.025Z,0.80
2019-02-27T07:08:02.229Z,0.80
2019-02-27T07:09:11.349Z,0.90
2019-02-27T07:10:19.603Z,0.90
2019-02-27T07:11:19.990Z,0.90
2019-02-27T07:12:23.623Z,0.90
2019-02-27T07:13:29.874Z,0.90
2019-02-27T07:14:32.495Z,0.80
2019-02-27T07:15:36.088Z,0.80
2019-02-27T07:16:39.668Z,0.70
2019-02-27T07:17:43.361Z,0.70
2019-02-27T07:18:46.967Z,0.70
2019-02-27T07:19:50.553Z,0.70
2019-02-27T07:20:55.585Z,0.70
2019-02-27T07:21:59.449Z,0.80
2019-02-27T07:23:03.083Z,1.10
2019-02-27T07:24:06.675Z,1.40
2019-02-27T07:25:12.587Z,1.70
2019-02-27T07:26:16.628Z,1.80
2019-02-27T07:27:20.370Z,2.00
2019-02-27T07:28:24.156Z,2.00
2019-02-27T07:29:28.102Z,1.90
2019-02-27T07:30:31.724Z,1.90
2019-02-27T07:31:35.306Z,1.80
2019-02-27T07:32:38.874Z,1.70
2019-02-27T07:33:42.498Z,1.50
2019-02-27T07:34:46.699Z,1.50
2019-02-27T07:35:51.348Z,1.40
2019-02-27T07:36:54.977Z,1.30
2019-02-27T07:37:58.550Z,1.30
2019-02-27T07:39:02.145Z,1.20
2019-02-27T07:40:17.969Z,1.20
2019-02-27T07:41:21.607Z,1.10
2019-02-27T07:42:25.207Z,1.10
2019-02-27T07:43:28.794Z,1.10
2019-02-27T07:44:35.035Z,1.10
2019-02-27T07:45:37.662Z,1.10
2019-02-27T07:46:41.344Z,1.10
2019-02-27T07:47:44.951Z,1.00
2019-02-27T07:48:48.558Z,1.00
2019-02-27T07:49:52.164Z,1.00
2019-02-27T07:50:55.927Z,1.00
2019-02-27T07:51:59.587Z,1.00
2019-02-27T07:53:03.196Z,1.10
2019-02-27T07:54:06.792Z,1.10
2019-02-27T07:55:22.010Z,1.10
2019-02-27T07:56:21.530Z,1.10
2019-02-27T07:57:25.187Z,1.20
2019-02-27T07:58:31.221Z,1.20
2019-02-27T07:59:37.944Z,1.20
2019-02-27T08:00:39.266Z,1.20
2019-02-27T08:01:43.966Z,1.30
2019-02-27T08:02:47.714Z,1.30
2019-02-27T08:03:51.290Z,1.30
2019-02-27T08:04:55.316Z,1.40
2019-02-27T08:05:59.784Z,1.40
2019-02-27T08:07:04.366Z,1.50
2019-02-27T08:08:08.042Z,1.60
2019-02-27T08:09:11.730Z,1.60
2019-02-27T08:10:22.722Z,1.80
2019-02-27T08:11:26.551Z,1.90
2019-02-27T08:12:30.257Z,2.10
2019-02-27T08:13:33.887Z,2.10
2019-02-27T08:14:37.902Z,2.20
2019-02-27T08:15:41.556Z,2.20
2019-02-27T08:16:45.173Z,2.30
2019-02-27T08:17:49.052Z,2.30
2019-02-27T08:18:52.714Z,2.30
2019-02-27T08:19:56.374Z,2.30
2019-02-27T08:21:00.005Z,2.30
2019-02-27T08:22:03.677Z,2.50
2019-02-27T08:23:07.330Z,2.60
2019-02-27T08:24:10.991Z,2.70
2019-02-27T08:25:18.213Z,2.80
2019-02-27T08:26:21.830Z,2.90
2019-02-27T08:27:25.459Z,3.00
2019-02-27T08:28:29.084Z,3.00
2019-02-27T08:29:32.729Z,3.00
2019-02-27T08:30:36.345Z,3.00
2019-02-27T08:31:40.014Z,3.00
2019-02-27T08:32:43.621Z,3.10
2019-02-27T08:33:47.288Z,3.10
2019-02-27T08:34:50.926Z,3.10
2019-02-27T08:35:54.528Z,3.20
2019-02-27T08:36:58.160Z,3.30
2019-02-27T08:38:02.832Z,3.40
2019-02-27T08:39:06.844Z,3.50
2019-02-27T08:40:12.540Z,3.50
2019-02-27T08:41:16.149Z,3.60
2019-02-27T08:42:19.808Z,3.70
2019-02-27T08:43:23.431Z,3.70
2019-02-27T08:44:27.014Z,3.80
2019-02-27T08:45:30.828Z,3.90
2019-02-27T08:46:37.002Z,3.90
2019-02-27T08:47:40.831Z,3.90
2019-02-27T08:48:49.738Z,4.00
2019-02-27T08:49:50.400Z,4.00
2019-02-27T08:50:54.053Z,4.10
2019-02-27T08:51:57.686Z,4.10
2019-02-27T08:53:01.349Z,4.30
2019-02-27T08:54:05.039Z,4.30
2019-02-27T08:55:18.808Z,4.40
2019-02-27T08:56:16.688Z,4.40
2019-02-27T08:57:20.338Z,4.50
2019-02-27T08:58:23.989Z,4.50
2019-02-27T08:59:27.583Z,4.50
2019-02-27T09:00:32.849Z,4.60
2019-02-27T09:01:37.877Z,4.70
2019-02-27T09:02:41.540Z,4.70
2019-02-27T09:03:45.202Z,4.90
2019-02-27T09:04:48.825Z,4.90
2019-02-27T09:05:53.761Z,5.00
2019-02-27T09:07:02.159Z,5.10
2019-02-27T09:08:02.956Z,5.10
2019-02-27T09:09:07.977Z,5.20
2019-02-27T09:10:14.522Z,5.30
2019-02-27T09:11:18.153Z,5.40
2019-02-27T09:12:21.785Z,5.50
2019-02-27T09:13:25.454Z,5.60
2019-02-27T09:14:29.120Z,5.60
2019-02-27T09:15:32.791Z,5.70
2019-02-27T09:16:36.396Z,5.80
2019-02-27T09:17:40.094Z,5.80
2019-02-27T09:18:44.219Z,5.80
2019-02-27T09:19:47.909Z,5.90
2019-02-27T09:20:53.360Z,6.00
2019-02-27T09:21:56.840Z,6.10
2019-02-27T09:23:00.444Z,6.20
2019-02-27T09:24:04.147Z,6.30
2019-02-27T09:25:09.409Z,6.30
2019-02-27T09:26:13.442Z,6.40
2019-02-27T09:27:17.061Z,6.50
2019-02-27T09:28:20.675Z,6.60
2019-02-27T09:29:24.353Z,6.70
2019-02-27T09:30:29.346Z,6.80
2019-02-27T09:31:34.771Z,6.90
2019-02-27T09:32:38.696Z,7.00
2019-02-27T09:33:42.302Z,7.00
2019-02-27T09:34:45.921Z,7.00
2019-02-27T09:35:49.591Z,7.00
2019-02-27T09:36:53.280Z,7.00
2019-02-27T09:37:56.869Z,7.20
2019-02-27T09:39:00.810Z,7.70
2019-02-27T09:40:07.217Z,8.60
2019-02-27T09:41:12.386Z,9.80
2019-02-27T09:42:18.745Z,11.10
2019-02-27T09:43:24.081Z,12.60
2019-02-27T09:44:26.736Z,13.80
2019-02-27T09:45:37.066Z,14.70
2019-02-27T09:46:40.710Z,15.50
2019-02-27T09:47:44.363Z,16.20
2019-02-27T09:48:47.990Z,16.90
2019-02-27T09:49:51.647Z,17.00
2019-02-27T09:50:56.950Z,17.30
2019-02-27T09:52:00.731Z,17.70
2019-02-27T09:53:04.686Z,17.80
2019-02-27T09:54:10.943Z,17.60
2019-02-27T09:55:13.620Z,17.50
2019-02-27T09:56:17.232Z,17.60
2019-02-27T09:57:20.903Z,17.90
2019-02-27T09:58:24.520Z,18.10
2019-02-27T09:59:28.139Z,18.00
2019-02-27T10:00:36.637Z,18.10
2019-02-27T10:01:40.408Z,18.20
2019-02-27T10:02:46.398Z,18.20
2019-02-27T10:03:52.102Z,18.60
2019-02-27T10:04:54.829Z,18.90
2019-02-27T10:05:58.499Z,19.50
2019-02-27T10:07:02.116Z,19.90
2019-02-27T10:08:07.598Z,20.10
2019-02-27T10:09:14.424Z,19.70
2019-02-27T10:10:18.050Z,19.30
2019-02-27T10:11:22.413Z,19.10
2019-02-27T10:12:27.770Z,18.90
2019-02-27T10:13:31.364Z,18.80
2019-02-27T10:14:34.972Z,18.90
2019-02-27T10:15:38.667Z,19.10
2019-02-27T10:16:42.333Z,19.60
2019-02-27T10:17:46.015Z,20.00
2019-02-27T10:18:49.698Z,20.00
2019-02-27T10:19:53.328Z,20.00
2019-02-27T10:20:56.980Z,20.20
2019-02-27T10:22:00.593Z,20.20
2019-02-27T10:23:04.230Z,20.10
2019-02-27T10:24:08.036Z,20.30
2019-02-27T10:25:11.724Z,20.50
2019-02-27T10:26:16.550Z,20.80
2019-02-27T10:27:20.673Z,20.70
2019-02-27T10:28:24.282Z,20.50
2019-02-27T10:29:27.955Z,20.30
2019-02-27T10:30:31.774Z,20.10
2019-02-27T10:31:35.450Z,19.50
2019-02-27T10:32:39.067Z,19.20
2019-02-27T10:33:43.476Z,19.30
2019-02-27T10:34:47.266Z,19.60
2019-02-27T10:35:51.127Z,19.60
2019-02-27T10:36:54.837Z,19.80
2019-02-27T10:37:58.505Z,19.90
2019-02-27T10:39:02.805Z,19.80
2019-02-27T10:40:12.296Z,20.00
2019-02-27T10:41:15.891Z,20.00
2019-02-27T10:42:19.512Z,20.00
2019-02-27T10:43:23.135Z,20.10
2019-02-27T10:44:26.785Z,19.90
2019-02-27T10:45:30.419Z,20.00
2019-02-27T10:46:34.111Z,20.20
2019-02-27T10:47:39.834Z,20.40
2019-02-27T10:48:43.125Z,20.40
2019-02-27T10:49:46.756Z,20.70
2019-02-27T10:50:50.378Z,21.10
2019-02-27T10:51:53.996Z,21.10
2019-02-27T10:52:57.729Z,21.00
2019-02-27T10:54:04.529Z,21.10
2019-02-27T10:55:11.258Z,21.10
2019-02-27T10:56:14.851Z,21.10
2019-02-27T10:57:18.502Z,20.70
2019-02-27T10:58:22.139Z,20.60
2019-02-27T10:59:25.762Z,20.60
2019-02-27T11:00:31.595Z,20.70
2019-02-27T11:01:36.376Z,20.90
2019-02-27T11:02:40.728Z,20.90
2019-02-27T11:03:44.337Z,20.90
2019-02-27T11:04:49.986Z,21.10
2019-02-27T11:05:55.547Z,21.20
2019-02-27T11:06:58.550Z,21.30
2019-02-27T11:08:02.325Z,21.20
2019-02-27T11:09:09.066Z,21.00
2019-02-27T11:10:12.879Z,20.90
2019-02-27T11:11:16.636Z,20.90
2019-02-27T11:12:20.208Z,20.90
2019-02-27T11:13:23.839Z,20.70
2019-02-27T11:14:31.641Z,20.70
2019-02-27T11:15:32.761Z,20.70
2019-02-27T11:16:36.402Z,20.80
2019-02-27T11:17:40.016Z,21.00
2019-02-27T11:18:43.644Z,21.10
2019-02-27T11:19:47.267Z,21.00
2019-02-27T11:20:50.945Z,20.80
2019-02-27T11:21:54.669Z,20.80
2019-02-27T11:22:58.329Z,20.70
2019-02-27T11:24:01.939Z,20.50
2019-02-27T11:25:08.709Z,20.00
2019-02-27T11:26:12.355Z,19.90
2019-02-27T11:27:16.872Z,19.90
2019-02-27T11:28:21.529Z,20.00
2019-02-27T11:29:25.176Z,20.10
2019-02-27T11:30:37.173Z,20.10
2019-02-27T11:31:42.337Z,19.90
2019-02-27T11:32:46.182Z,19.80
2019-02-27T11:33:49.816Z,19.60
2019-02-27T11:34:53.435Z,19.50
2019-02-27T11:35:57.046Z,19.40
2019-02-27T11:37:00.696Z,19.00
2019-02-27T11:38:04.616Z,18.90
2019-02-27T11:39:08.558Z,18.70
2019-02-27T11:40:14.906Z,18.60
2019-02-27T11:41:18.597Z,18.60
2019-02-27T11:42:22.307Z,18.50
2019-02-27T11:43:25.998Z,18.50
2019-02-27T11:44:29.682Z,18.50
2019-02-27T11:45:33.300Z,18.50
2019-02-27T11:46:38.241Z,18.40
2019-02-27T11:47:47.739Z,18.40
2019-02-27T11:48:47.509Z,18.50
2019-02-27T11:49:51.200Z,18.50
2019-02-27T11:50:54.820Z,18.70
2019-02-27T11:51:58.466Z,18.90
2019-02-27T11:53:03.064Z,19.00
2019-02-27T11:54:08.247Z,18.80
2019-02-27T11:55:16.631Z,18.90
2019-02-27T11:56:20.840Z,19.10
2019-02-27T11:57:24.469Z,19.20
2019-02-27T11:58:28.077Z,19.20
2019-02-27T11:59:31.769Z,19.10
2019-02-27T12:00:35.513Z,19.10
2019-02-27T12:01:39.204Z,19.40
2019-02-27T12:02:42.891Z,19.60
2019-02-27T12:03:46.597Z,19.60
2019-02-27T12:04:53.498Z,19.80
2019-02-27T12:05:55.733Z,19.50
2019-02-27T12:06:59.412Z,19.20
2019-02-27T12:08:03.066Z,19.00
2019-02-27T12:09:07.229Z,19.20
2019-02-27T12:10:24.921Z,19.40
2019-02-27T12:11:28.579Z,19.60
2019-02-27T12:12:32.222Z,19.80
2019-02-27T12:13:35.923Z,19.80
2019-02-27T12:14:39.599Z,20.30
2019-02-27T12:15:44.189Z,20.70
2019-02-27T12:16:48.593Z,20.90
2019-02-27T12:17:53.184Z,21.20
2019-02-27T12:18:56.856Z,21.20
2019-02-27T12:20:00.496Z,21.50
2019-02-27T12:21:04.127Z,21.70
2019-02-27T12:22:07.753Z,21.50
2019-02-27T12:23:11.411Z,21.60
2019-02-27T12:24:16.368Z,21.60
2019-02-27T12:25:21.123Z,21.40
2019-02-27T12:26:24.808Z,21.70
2019-02-27T12:27:47.896Z,21.90
2019-02-27T12:28:33.747Z,22.10
2019-02-27T12:29:37.471Z,22.10
2019-02-27T12:30:41.153Z,22.30
2019-02-27T12:31:47.975Z,22.50
2019-02-27T12:32:50.267Z,22.60
2019-02-27T12:33:53.903Z,22.60
2019-02-27T12:34:57.543Z,22.80
2019-02-27T12:36:01.229Z,22.80
2019-02-27T12:37:04.946Z,22.90
2019-02-27T12:38:08.646Z,23.20
2019-02-27T12:39:15.206Z,23.30
2019-02-27T12:40:24.963Z,23.30
2019-02-27T12:41:27.387Z,23.40
2019-02-27T12:42:37.064Z,23.40
2019-02-27T12:43:36.304Z,23.60
2019-02-27T12:44:39.950Z,23.80
2019-02-27T12:45:43.560Z,24.10
2019-02-27T12:46:47.193Z,24.40
2019-02-27T12:47:50.802Z,24.20
2019-02-27T12:48:54.489Z,24.40
2019-02-27T12:49:58.101Z,24.00
2019-02-27T12:51:03.723Z,23.30
2019-02-27T12:52:08.960Z,23.40
2019-02-27T12:53:12.369Z,23.70
2019-02-27T12:54:18.278Z,23.70
2019-02-27T12:55:23.221Z,24.10
2019-02-27T12:56:26.850Z,24.50
2019-02-27T12:57:30.479Z,24.70
2019-02-27T12:58:34.127Z,24.80
2019-02-27T12:59:37.846Z,25.00
2019-02-27T13:00:42.520Z,25.20
2019-02-27T13:01:50.927Z,25.40
2019-02-27T13:02:52.090Z,25.60
2019-02-27T13:03:56.881Z,25.70
2019-02-27T13:05:00.683Z,25.90
2019-02-27T13:06:04.659Z,26.20
2019-02-27T13:07:10.372Z,26.10
2019-02-27T13:08:13.542Z,25.90
2019-02-27T13:09:17.214Z,25.80
2019-02-27T13:10:25.640Z,26.00
2019-02-27T13:11:29.305Z,26.10
2019-02-27T13:12:32.950Z,26.00
2019-02-27T13:13:36.565Z,26.30
2019-02-27T13:14:40.193Z,26.40
2019-02-27T13:15:43.934Z,26.50
2019-02-27T13:16:49.496Z,26.40
2019-02-27T13:17:56.282Z,26.70
2019-02-27T13:18:58.299Z,26.80
2019-02-27T13:20:03.084Z,26.80
2019-02-27T13:21:06.909Z,27.00
2019-02-27T13:22:10.511Z,27.20
2019-02-27T13:23:14.121Z,27.30
2019-02-27T13:24:17.753Z,27.50
2019-02-27T13:25:23.924Z,27.70
2019-02-27T13:26:26.723Z,27.70
2019-02-27T13:27:30.339Z,27.80
2019-02-27T13:28:33.966Z,28.00
2019-02-27T13:29:37.575Z,28.00
2019-02-27T13:30:41.586Z,28.20
2019-02-27T13:31:48.457Z,27.50
2019-02-27T13:32:51.096Z,27.40
2019-02-27T13:33:54.772Z,27.20
2019-02-27T13:34:58.423Z,27.00
2019-02-27T13:36:02.029Z,27.10
2019-02-27T13:37:09.154Z,27.20
2019-02-27T13:38:11.372Z,27.50
2019-02-27T13:39:14.978Z,27.70
2019-02-27T13:40:23.441Z,27.40
2019-02-27T13:41:27.117Z,27.10
2019-02-27T13:42:30.723Z,27.00
2019-02-27T13:43:34.403Z,26.90
2019-02-27T13:44:38.866Z,26.80
2019-02-27T13:45:47.331Z,26.90
2019-02-27T13:46:47.965Z,26.70
2019-02-27T13:47:51.565Z,26.10
2019-02-27T13:48:55.203Z,26.50
2019-02-27T13:49:58.831Z,26.40
2019-02-27T13:51:02.706Z,26.20
2019-02-27T13:52:06.411Z,26.10
2019-02-27T13:53:10.154Z,25.80
2019-02-27T13:54:13.769Z,26.20
2019-02-27T13:55:22.504Z,26.50
2019-02-27T13:56:27.557Z,26.60
2019-02-27T13:57:31.647Z,26.60
2019-02-27T13:58:36.488Z,26.70
2019-02-27T13:59:42.277Z,26.80
2019-02-27T14:00:45.524Z,27.00
2019-02-27T14:01:49.187Z,27.40
2019-02-27T14:02:52.847Z,27.60
2019-02-27T14:03:56.507Z,28.00
2019-02-27T14:05:00.761Z,28.10
2019-02-27T14:06:06.219Z,27.70
2019-02-27T14:07:10.162Z,27.50
2019-02-27T14:08:13.944Z,27.50
2019-02-27T14:09:18.959Z,27.50
2019-02-27T14:10:28.518Z,27.50
2019-02-27T14:11:32.172Z,27.60
2019-02-27T14:12:36.451Z,27.50
2019-02-27T14:13:43.805Z,27.50
2019-02-27T14:14:45.482Z,27.30
2019-02-27T14:15:49.083Z,27.40
2019-02-27T14:16:52.692Z,27.30
2019-02-27T14:17:56.379Z,27.40
2019-02-27T14:18:59.991Z,27.30
2019-02-27T14:20:05.308Z,27.10
2019-02-27T14:21:09.038Z,26.80
2019-02-27T14:22:12.639Z,26.80
2019-02-27T14:23:16.298Z,26.80
2019-02-27T14:24:20.773Z,26.90
2019-02-27T14:25:31.172Z,27.10
2019-02-27T14:26:32.896Z,27.00
2019-02-27T14:27:36.491Z,27.10
2019-02-27T14:28:40.156Z,27.10
2019-02-27T14:29:43.780Z,27.10
2019-02-27T14:30:49.936Z,26.90